sensor_id;sensor_type;location;lat;lon;timestamp;P1;durP1;ratioP1;P2;durP2;ratioP2
7561;SDS011;3822;48.784;9.174;2022-12-18T00:03:53;49.50;;;22.93;;
7561;SDS011;3822;48.784;9.174;2022-12-18T00:06:21;52.60;;;24.23;;
7561;SDS011;3822;48.784;9.174;2022-12-18T00:08:49;60.07;;;25.90;;
7561;SDS011;3822;48.784;9.174;2022-12-18T00:11:18;59.40;;;26.50;;
7561;SDS011;3822;48.784;9.174;2022-12-18T00:13:47;56.60;;;25.10;;
7561;SDS011;3822;48.784;9.174;2022-12-18T00:16:15;49.90;;;23.03;;
7561;SDS011;3822;48.784;9.174;2022-12-18T00:18:46;52.50;;;24.30;;
7561;SDS011;3822;48.784;9.174;2022-12-18T00:21:14;61.63;;;25.63;;
7561;SDS011;3822;48.784;9.174;2022-12-18T00:23:42;49.33;;;23.97;;
7561;SDS011;3822;48.784;9.174;2022-12-18T00:26:10;51.27;;;24.37;;
7561;SDS011;3822;48.784;9.174;2022-12-18T00:28:41;53.70;;;26.17;;
7561;SDS011;3822;48.784;9.174;2022-12-18T00:31:10;41.07;;;20.53;;
7561;SDS011;3822;48.784;9.174;2022-12-18T00:33:40;57.60;;;26.30;;
7561;SDS011;3822;48.784;9.174;2022-12-18T00:36:07;54.20;;;25.60;;
7561;SDS011;3822;48.784;9.174;2022-12-18T00:38:41;51.10;;;24.40;;
7561;SDS011;3822;48.784;9.174;2022-12-18T00:41:08;51.70;;;23.50;;
7561;SDS011;3822;48.784;9.174;2022-12-18T00:43:36;59.73;;;26.27;;
7561;SDS011;3822;48.784;9.174;2022-12-18T00:46:04;46.80;;;25.00;;
7561;SDS011;3822;48.784;9.174;2022-12-18T00:48:31;51.50;;;25.47;;
7561;SDS011;3822;48.784;9.174;2022-12-18T00:50:58;54.70;;;25.00;;
7561;SDS011;3822;48.784;9.174;2022-12-18T00:53:24;54.43;;;26.57;;
7561;SDS011;3822;48.784;9.174;2022-12-18T00:55:51;48.53;;;22.57;;
7561;SDS011;3822;48.784;9.174;2022-12-18T00:58:17;53.50;;;24.00;;
7561;SDS011;3822;48.784;9.174;2022-12-18T01:00:44;55.67;;;23.23;;
7561;SDS011;3822;48.784;9.174;2022-12-18T01:03:14;52.50;;;24.60;;
7561;SDS011;3822;48.784;9.174;2022-12-18T01:05:41;49.07;;;22.83;;
7561;SDS011;3822;48.784;9.174;2022-12-18T01:08:08;45.30;;;21.80;;
7561;SDS011;3822;48.784;9.174;2022-12-18T01:13:20;44.90;;;22.30;;
7561;SDS011;3822;48.784;9.174;2022-12-18T01:15:50;61.30;;;23.87;;
7561;SDS011;3822;48.784;9.174;2022-12-18T01:18:17;45.50;;;24.00;;
7561;SDS011;3822;48.784;9.174;2022-12-18T01:20:44;59.30;;;23.10;;
7561;SDS011;3822;48.784;9.174;2022-12-18T01:23:10;57.33;;;23.60;;
7561;SDS011;3822;48.784;9.174;2022-12-18T01:25:37;54.57;;;24.23;;
7561;SDS011;3822;48.784;9.174;2022-12-18T01:28:04;50.67;;;23.03;;
7561;SDS011;3822;48.784;9.174;2022-12-18T01:30:33;51.57;;;24.73;;
7561;SDS011;3822;48.784;9.174;2022-12-18T01:33:00;44.20;;;20.80;;
7561;SDS011;3822;48.784;9.174;2022-12-18T01:35:27;50.57;;;24.00;;
7561;SDS011;3822;48.784;9.174;2022-12-18T01:37:54;54.30;;;24.27;;
7561;SDS011;3822;48.784;9.174;2022-12-18T01:40:21;64.50;;;25.33;;
7561;SDS011;3822;48.784;9.174;2022-12-18T01:42:52;56.60;;;23.87;;
7561;SDS011;3822;48.784;9.174;2022-12-18T01:45:23;50.80;;;25.17;;
7561;SDS011;3822;48.784;9.174;2022-12-18T01:47:57;53.77;;;25.10;;
7561;SDS011;3822;48.784;9.174;2022-12-18T01:50:40;51.23;;;23.40;;
7561;SDS011;3822;48.784;9.174;2022-12-18T01:53:13;46.73;;;21.83;;
7561;SDS011;3822;48.784;9.174;2022-12-18T01:58:18;40.63;;;21.53;;
7561;SDS011;3822;48.784;9.174;2022-12-18T02:00:50;52.00;;;24.27;;
7561;SDS011;3822;48.784;9.174;2022-12-18T02:03:17;47.47;;;23.57;;
7561;SDS011;3822;48.784;9.174;2022-12-18T02:06:30;49.73;;;22.37;;
7561;SDS011;3822;48.784;9.174;2022-12-18T02:11:56;49.10;;;22.07;;
7561;SDS011;3822;48.784;9.174;2022-12-18T02:14:41;45.77;;;22.43;;
7561;SDS011;3822;48.784;9.174;2022-12-18T02:17:15;44.20;;;22.40;;
7561;SDS011;3822;48.784;9.174;2022-12-18T02:28:47;44.10;;;20.20;;
7561;SDS011;3822;48.784;9.174;2022-12-18T02:32:06;51.40;;;21.17;;
7561;SDS011;3822;48.784;9.174;2022-12-18T02:34:38;45.50;;;20.33;;
7561;SDS011;3822;48.784;9.174;2022-12-18T02:37:07;55.47;;;23.93;;
7561;SDS011;3822;48.784;9.174;2022-12-18T02:39:39;49.40;;;22.77;;
7561;SDS011;3822;48.784;9.174;2022-12-18T02:42:09;44.10;;;19.83;;
7561;SDS011;3822;48.784;9.174;2022-12-18T02:44:43;43.23;;;21.07;;
7561;SDS011;3822;48.784;9.174;2022-12-18T02:47:11;53.57;;;23.30;;
7561;SDS011;3822;48.784;9.174;2022-12-18T02:53:00;48.53;;;21.77;;
7561;SDS011;3822;48.784;9.174;2022-12-18T03:01:15;43.30;;;21.67;;
7561;SDS011;3822;48.784;9.174;2022-12-18T03:03:52;52.67;;;22.30;;
7561;SDS011;3822;48.784;9.174;2022-12-18T03:06:27;52.47;;;23.70;;
7561;SDS011;3822;48.784;9.174;2022-12-18T03:09:04;43.77;;;21.70;;
7561;SDS011;3822;48.784;9.174;2022-12-18T03:11:37;44.93;;;21.73;;
7561;SDS011;3822;48.784;9.174;2022-12-18T03:14:26;51.63;;;21.87;;
7561;SDS011;3822;48.784;9.174;2022-12-18T03:16:57;50.80;;;23.50;;
7561;SDS011;3822;48.784;9.174;2022-12-18T03:19:28;43.60;;;20.53;;
7561;SDS011;3822;48.784;9.174;2022-12-18T03:21:58;47.73;;;20.87;;
7561;SDS011;3822;48.784;9.174;2022-12-18T03:24:29;43.77;;;19.40;;
7561;SDS011;3822;48.784;9.174;2022-12-18T03:27:02;39.77;;;18.43;;
7561;SDS011;3822;48.784;9.174;2022-12-18T03:32:07;45.17;;;19.57;;
7561;SDS011;3822;48.784;9.174;2022-12-18T03:34:47;42.17;;;19.63;;
7561;SDS011;3822;48.784;9.174;2022-12-18T03:37:16;43.63;;;20.73;;
7561;SDS011;3822;48.784;9.174;2022-12-18T03:39:43;46.47;;;19.70;;
7561;SDS011;3822;48.784;9.174;2022-12-18T03:48:04;39.70;;;17.80;;
7561;SDS011;3822;48.784;9.174;2022-12-18T03:50:57;43.53;;;20.07;;
7561;SDS011;3822;48.784;9.174;2022-12-18T03:53:35;38.27;;;19.07;;
7561;SDS011;3822;48.784;9.174;2022-12-18T03:56:15;37.73;;;18.37;;
7561;SDS011;3822;48.784;9.174;2022-12-18T03:58:43;43.53;;;20.10;;
7561;SDS011;3822;48.784;9.174;2022-12-18T04:01:12;43.57;;;20.27;;
7561;SDS011;3822;48.784;9.174;2022-12-18T04:03:41;41.40;;;19.40;;
7561;SDS011;3822;48.784;9.174;2022-12-18T04:06:10;56.07;;;22.33;;
7561;SDS011;3822;48.784;9.174;2022-12-18T04:08:37;43.50;;;21.40;;
7561;SDS011;3822;48.784;9.174;2022-12-18T04:11:05;45.23;;;20.83;;
7561;SDS011;3822;48.784;9.174;2022-12-18T04:13:33;43.10;;;19.30;;
7561;SDS011;3822;48.784;9.174;2022-12-18T04:16:03;38.70;;;17.50;;
7561;SDS011;3822;48.784;9.174;2022-12-18T04:18:32;35.07;;;16.80;;
7561;SDS011;3822;48.784;9.174;2022-12-18T04:20:59;40.00;;;19.10;;
7561;SDS011;3822;48.784;9.174;2022-12-18T04:23:26;38.00;;;17.37;;
7561;SDS011;3822;48.784;9.174;2022-12-18T04:25:52;34.53;;;17.43;;
7561;SDS011;3822;48.784;9.174;2022-12-18T04:28:19;35.73;;;17.10;;
7561;SDS011;3822;48.784;9.174;2022-12-18T04:30:50;30.10;;;15.13;;
7561;SDS011;3822;48.784;9.174;2022-12-18T04:33:17;40.60;;;17.93;;
7561;SDS011;3822;48.784;9.174;2022-12-18T04:35:44;33.53;;;15.83;;
7561;SDS011;3822;48.784;9.174;2022-12-18T04:38:11;30.37;;;15.90;;
7561;SDS011;3822;48.784;9.174;2022-12-18T04:40:37;30.53;;;15.50;;
7561;SDS011;3822;48.784;9.174;2022-12-18T04:43:04;32.50;;;16.27;;
7561;SDS011;3822;48.784;9.174;2022-12-18T04:45:31;28.50;;;15.37;;
7561;SDS011;3822;48.784;9.174;2022-12-18T04:47:58;29.10;;;15.13;;
7561;SDS011;3822;48.784;9.174;2022-12-18T04:50:26;35.73;;;15.63;;
7561;SDS011;3822;48.784;9.174;2022-12-18T04:52:54;31.70;;;16.33;;
7561;SDS011;3822;48.784;9.174;2022-12-18T04:55:20;35.83;;;15.00;;
7561;SDS011;3822;48.784;9.174;2022-12-18T04:57:47;32.47;;;15.57;;
7561;SDS011;3822;48.784;9.174;2022-12-18T05:00:14;33.97;;;16.77;;
7561;SDS011;3822;48.784;9.174;2022-12-18T05:02:41;31.97;;;16.10;;
7561;SDS011;3822;48.784;9.174;2022-12-18T05:05:07;41.30;;;17.27;;
7561;SDS011;3822;48.784;9.174;2022-12-18T05:07:34;32.47;;;15.70;;
7561;SDS011;3822;48.784;9.174;2022-12-18T05:10:01;34.23;;;17.00;;
7561;SDS011;3822;48.784;9.174;2022-12-18T05:12:28;36.90;;;16.90;;
7561;SDS011;3822;48.784;9.174;2022-12-18T05:14:54;27.60;;;13.50;;
7561;SDS011;3822;48.784;9.174;2022-12-18T05:17:21;31.43;;;16.57;;
7561;SDS011;3822;48.784;9.174;2022-12-18T05:19:47;32.33;;;16.00;;
7561;SDS011;3822;48.784;9.174;2022-12-18T05:22:14;31.17;;;15.57;;
7561;SDS011;3822;48.784;9.174;2022-12-18T05:24:40;30.80;;;15.27;;
7561;SDS011;3822;48.784;9.174;2022-12-18T05:27:07;32.00;;;16.10;;
7561;SDS011;3822;48.784;9.174;2022-12-18T05:29:33;33.13;;;15.07;;
7561;SDS011;3822;48.784;9.174;2022-12-18T05:32:00;28.47;;;14.83;;
7561;SDS011;3822;48.784;9.174;2022-12-18T05:34:27;36.13;;;16.43;;
7561;SDS011;3822;48.784;9.174;2022-12-18T05:36:54;36.57;;;17.87;;
7561;SDS011;3822;48.784;9.174;2022-12-18T05:39:20;31.40;;;16.20;;
7561;SDS011;3822;48.784;9.174;2022-12-18T05:41:47;26.43;;;14.37;;
7561;SDS011;3822;48.784;9.174;2022-12-18T05:44:13;32.30;;;16.00;;
7561;SDS011;3822;48.784;9.174;2022-12-18T05:46:40;32.10;;;15.70;;
7561;SDS011;3822;48.784;9.174;2022-12-18T05:49:06;31.80;;;15.67;;
7561;SDS011;3822;48.784;9.174;2022-12-18T05:51:33;23.83;;;14.10;;
7561;SDS011;3822;48.784;9.174;2022-12-18T05:53:59;31.03;;;14.80;;
7561;SDS011;3822;48.784;9.174;2022-12-18T05:56:26;30.20;;;15.13;;
7561;SDS011;3822;48.784;9.174;2022-12-18T05:58:53;27.07;;;14.10;;
7561;SDS011;3822;48.784;9.174;2022-12-18T06:01:22;35.30;;;16.60;;
7561;SDS011;3822;48.784;9.174;2022-12-18T06:03:52;30.37;;;15.60;;
7561;SDS011;3822;48.784;9.174;2022-12-18T06:06:20;34.30;;;15.83;;
7561;SDS011;3822;48.784;9.174;2022-12-18T06:08:50;32.00;;;15.60;;
7561;SDS011;3822;48.784;9.174;2022-12-18T06:11:19;32.27;;;16.23;;
7561;SDS011;3822;48.784;9.174;2022-12-18T06:13:52;33.90;;;14.50;;
7561;SDS011;3822;48.784;9.174;2022-12-18T06:16:20;32.13;;;15.13;;
7561;SDS011;3822;48.784;9.174;2022-12-18T06:18:46;33.87;;;16.00;;
7561;SDS011;3822;48.784;9.174;2022-12-18T06:21:13;32.90;;;15.20;;
7561;SDS011;3822;48.784;9.174;2022-12-18T06:23:39;32.50;;;16.90;;
7561;SDS011;3822;48.784;9.174;2022-12-18T06:26:06;34.80;;;16.53;;
7561;SDS011;3822;48.784;9.174;2022-12-18T06:28:38;34.13;;;16.37;;
7561;SDS011;3822;48.784;9.174;2022-12-18T06:31:05;27.47;;;16.17;;
7561;SDS011;3822;48.784;9.174;2022-12-18T06:33:33;35.30;;;15.07;;
7561;SDS011;3822;48.784;9.174;2022-12-18T06:36:04;27.43;;;14.43;;
7561;SDS011;3822;48.784;9.174;2022-12-18T06:38:34;32.00;;;15.70;;
7561;SDS011;3822;48.784;9.174;2022-12-18T06:41:08;29.90;;;15.73;;
7561;SDS011;3822;48.784;9.174;2022-12-18T06:43:39;33.90;;;15.77;;
7561;SDS011;3822;48.784;9.174;2022-12-18T06:46:06;28.33;;;13.73;;
7561;SDS011;3822;48.784;9.174;2022-12-18T06:48:32;33.27;;;15.63;;
7561;SDS011;3822;48.784;9.174;2022-12-18T06:50:59;29.13;;;15.70;;
7561;SDS011;3822;48.784;9.174;2022-12-18T06:53:26;33.30;;;14.93;;
7561;SDS011;3822;48.784;9.174;2022-12-18T06:55:59;30.73;;;15.23;;
7561;SDS011;3822;48.784;9.174;2022-12-18T06:58:27;31.20;;;15.93;;
7561;SDS011;3822;48.784;9.174;2022-12-18T07:00:58;32.87;;;15.13;;
7561;SDS011;3822;48.784;9.174;2022-12-18T07:03:33;37.00;;;16.83;;
7561;SDS011;3822;48.784;9.174;2022-12-18T07:06:00;32.70;;;15.30;;
7561;SDS011;3822;48.784;9.174;2022-12-18T07:08:29;26.33;;;14.20;;
7561;SDS011;3822;48.784;9.174;2022-12-18T07:10:57;30.60;;;16.10;;
7561;SDS011;3822;48.784;9.174;2022-12-18T07:13:23;28.27;;;15.40;;
7561;SDS011;3822;48.784;9.174;2022-12-18T07:15:50;27.60;;;14.27;;
7561;SDS011;3822;48.784;9.174;2022-12-18T07:18:16;32.13;;;16.07;;
7561;SDS011;3822;48.784;9.174;2022-12-18T07:20:43;32.03;;;15.43;;
7561;SDS011;3822;48.784;9.174;2022-12-18T07:23:09;36.90;;;17.30;;
7561;SDS011;3822;48.784;9.174;2022-12-18T07:25:36;27.13;;;14.30;;
7561;SDS011;3822;48.784;9.174;2022-12-18T07:28:03;31.40;;;15.30;;
7561;SDS011;3822;48.784;9.174;2022-12-18T07:30:30;33.70;;;16.07;;
7561;SDS011;3822;48.784;9.174;2022-12-18T07:32:57;29.73;;;14.10;;
7561;SDS011;3822;48.784;9.174;2022-12-18T07:35:23;28.53;;;14.73;;
7561;SDS011;3822;48.784;9.174;2022-12-18T07:37:50;36.63;;;16.10;;
7561;SDS011;3822;48.784;9.174;2022-12-18T07:40:19;32.17;;;15.80;;
7561;SDS011;3822;48.784;9.174;2022-12-18T07:42:45;37.27;;;16.23;;
7561;SDS011;3822;48.784;9.174;2022-12-18T07:45:12;29.00;;;15.13;;
7561;SDS011;3822;48.784;9.174;2022-12-18T07:47:38;30.70;;;15.20;;
7561;SDS011;3822;48.784;9.174;2022-12-18T07:50:06;31.93;;;14.80;;
7561;SDS011;3822;48.784;9.174;2022-12-18T07:52:35;32.93;;;16.37;;
7561;SDS011;3822;48.784;9.174;2022-12-18T07:55:02;34.30;;;16.30;;
7561;SDS011;3822;48.784;9.174;2022-12-18T07:57:29;33.67;;;15.47;;
7561;SDS011;3822;48.784;9.174;2022-12-18T07:59:55;31.47;;;15.13;;
7561;SDS011;3822;48.784;9.174;2022-12-18T08:02:22;33.07;;;15.90;;
7561;SDS011;3822;48.784;9.174;2022-12-18T08:04:48;35.53;;;17.43;;
7561;SDS011;3822;48.784;9.174;2022-12-18T08:07:15;37.93;;;17.07;;
7561;SDS011;3822;48.784;9.174;2022-12-18T08:09:41;57.17;;;23.47;;
7561;SDS011;3822;48.784;9.174;2022-12-18T08:12:08;41.93;;;18.27;;
7561;SDS011;3822;48.784;9.174;2022-12-18T08:14:34;38.73;;;16.43;;
7561;SDS011;3822;48.784;9.174;2022-12-18T08:17:01;36.83;;;17.77;;
7561;SDS011;3822;48.784;9.174;2022-12-18T08:19:28;36.23;;;16.50;;
7561;SDS011;3822;48.784;9.174;2022-12-18T08:21:55;30.67;;;15.60;;
7561;SDS011;3822;48.784;9.174;2022-12-18T08:24:22;33.10;;;17.90;;
7561;SDS011;3822;48.784;9.174;2022-12-18T08:26:50;44.23;;;18.73;;
7561;SDS011;3822;48.784;9.174;2022-12-18T08:29:17;34.40;;;16.37;;
7561;SDS011;3822;48.784;9.174;2022-12-18T08:31:43;30.40;;;15.20;;
7561;SDS011;3822;48.784;9.174;2022-12-18T08:34:10;33.07;;;16.80;;
7561;SDS011;3822;48.784;9.174;2022-12-18T08:36:36;39.13;;;18.20;;
7561;SDS011;3822;48.784;9.174;2022-12-18T08:39:03;38.73;;;18.30;;
7561;SDS011;3822;48.784;9.174;2022-12-18T08:41:29;28.63;;;16.03;;
7561;SDS011;3822;48.784;9.174;2022-12-18T08:43:55;36.27;;;18.00;;
7561;SDS011;3822;48.784;9.174;2022-12-18T08:46:41;35.77;;;17.93;;
7561;SDS011;3822;48.784;9.174;2022-12-18T08:49:09;39.43;;;17.33;;
7561;SDS011;3822;48.784;9.174;2022-12-18T08:51:37;32.90;;;16.40;;
7561;SDS011;3822;48.784;9.174;2022-12-18T08:54:04;37.13;;;17.13;;
7561;SDS011;3822;48.784;9.174;2022-12-18T08:56:32;40.30;;;19.07;;
7561;SDS011;3822;48.784;9.174;2022-12-18T08:58:59;37.40;;;17.67;;
7561;SDS011;3822;48.784;9.174;2022-12-18T09:01:26;36.93;;;17.13;;
7561;SDS011;3822;48.784;9.174;2022-12-18T09:03:52;37.37;;;18.63;;
7561;SDS011;3822;48.784;9.174;2022-12-18T09:06:20;40.83;;;18.47;;
7561;SDS011;3822;48.784;9.174;2022-12-18T09:08:48;30.90;;;17.00;;
7561;SDS011;3822;48.784;9.174;2022-12-18T09:11:19;42.23;;;17.80;;
7561;SDS011;3822;48.784;9.174;2022-12-18T09:13:52;42.90;;;17.43;;
7561;SDS011;3822;48.784;9.174;2022-12-18T09:16:19;44.33;;;19.43;;
7561;SDS011;3822;48.784;9.174;2022-12-18T09:18:47;39.53;;;18.93;;
7561;SDS011;3822;48.784;9.174;2022-12-18T09:21:18;38.80;;;19.33;;
7561;SDS011;3822;48.784;9.174;2022-12-18T09:23:50;44.53;;;21.60;;
7561;SDS011;3822;48.784;9.174;2022-12-18T09:26:17;37.17;;;18.60;;
7561;SDS011;3822;48.784;9.174;2022-12-18T09:28:44;43.13;;;18.10;;
7561;SDS011;3822;48.784;9.174;2022-12-18T09:31:11;39.83;;;18.73;;
7561;SDS011;3822;48.784;9.174;2022-12-18T09:33:39;43.67;;;19.80;;
7561;SDS011;3822;48.784;9.174;2022-12-18T09:36:06;40.90;;;19.47;;
7561;SDS011;3822;48.784;9.174;2022-12-18T09:38:35;37.43;;;18.00;;
7561;SDS011;3822;48.784;9.174;2022-12-18T09:41:45;47.50;;;20.50;;
7561;SDS011;3822;48.784;9.174;2022-12-18T09:46:59;44.40;;;19.33;;
7561;SDS011;3822;48.784;9.174;2022-12-18T09:49:54;42.17;;;19.77;;
7561;SDS011;3822;48.784;9.174;2022-12-18T09:52:31;32.43;;;17.80;;
7561;SDS011;3822;48.784;9.174;2022-12-18T09:58:26;43.67;;;21.00;;
7561;SDS011;3822;48.784;9.174;2022-12-18T10:01:26;46.57;;;19.30;;
7561;SDS011;3822;48.784;9.174;2022-12-18T10:03:54;42.70;;;20.27;;
7561;SDS011;3822;48.784;9.174;2022-12-18T10:06:30;41.93;;;17.50;;
7561;SDS011;3822;48.784;9.174;2022-12-18T10:16:00;48.67;;;20.07;;
7561;SDS011;3822;48.784;9.174;2022-12-18T10:25:04;39.57;;;18.50;;
7561;SDS011;3822;48.784;9.174;2022-12-18T10:27:53;36.23;;;18.57;;
7561;SDS011;3822;48.784;9.174;2022-12-18T10:30:24;39.60;;;18.10;;
7561;SDS011;3822;48.784;9.174;2022-12-18T10:32:52;42.57;;;18.10;;
7561;SDS011;3822;48.784;9.174;2022-12-18T10:35:26;38.57;;;18.17;;
7561;SDS011;3822;48.784;9.174;2022-12-18T10:43:35;43.67;;;21.93;;
7561;SDS011;3822;48.784;9.174;2022-12-18T10:48:39;38.37;;;19.17;;
7561;SDS011;3822;48.784;9.174;2022-12-18T10:51:19;42.30;;;18.30;;
7561;SDS011;3822;48.784;9.174;2022-12-18T10:54:03;47.53;;;18.17;;
7561;SDS011;3822;48.784;9.174;2022-12-18T10:56:35;39.73;;;18.27;;
7561;SDS011;3822;48.784;9.174;2022-12-18T10:59:04;40.07;;;18.73;;
7561;SDS011;3822;48.784;9.174;2022-12-18T11:04:21;41.63;;;18.60;;
7561;SDS011;3822;48.784;9.174;2022-12-18T11:06:59;39.27;;;18.53;;
7561;SDS011;3822;48.784;9.174;2022-12-18T11:09:32;42.30;;;20.23;;
7561;SDS011;3822;48.784;9.174;2022-12-18T11:12:02;38.30;;;19.53;;
7561;SDS011;3822;48.784;9.174;2022-12-18T11:14:53;41.77;;;19.40;;
7561;SDS011;3822;48.784;9.174;2022-12-18T11:17:29;44.23;;;22.60;;
7561;SDS011;3822;48.784;9.174;2022-12-18T11:20:03;40.00;;;19.10;;
7561;SDS011;3822;48.784;9.174;2022-12-18T11:22:55;35.30;;;18.00;;
7561;SDS011;3822;48.784;9.174;2022-12-18T11:25:26;33.27;;;17.23;;
7561;SDS011;3822;48.784;9.174;2022-12-18T11:27:56;33.23;;;18.07;;
7561;SDS011;3822;48.784;9.174;2022-12-18T11:30:44;32.33;;;16.33;;
7561;SDS011;3822;48.784;9.174;2022-12-18T11:33:20;35.47;;;16.80;;
7561;SDS011;3822;48.784;9.174;2022-12-18T11:35:55;33.67;;;17.17;;
7561;SDS011;3822;48.784;9.174;2022-12-18T11:38:33;27.20;;;14.87;;
7561;SDS011;3822;48.784;9.174;2022-12-18T11:44:28;30.53;;;15.97;;
7561;SDS011;3822;48.784;9.174;2022-12-18T11:53:18;27.80;;;16.07;;
7561;SDS011;3822;48.784;9.174;2022-12-18T11:58:38;29.40;;;14.70;;
7561;SDS011;3822;48.784;9.174;2022-12-18T12:03:56;27.60;;;14.63;;
7561;SDS011;3822;48.784;9.174;2022-12-18T12:06:47;34.00;;;15.37;;
7561;SDS011;3822;48.784;9.174;2022-12-18T12:12:25;28.93;;;14.63;;
7561;SDS011;3822;48.784;9.174;2022-12-18T12:15:25;30.30;;;14.50;;
7561;SDS011;3822;48.784;9.174;2022-12-18T12:24:12;33.80;;;16.20;;
7561;SDS011;3822;48.784;9.174;2022-12-18T12:27:01;27.50;;;13.43;;
7561;SDS011;3822;48.784;9.174;2022-12-18T12:35:30;31.80;;;16.17;;
7561;SDS011;3822;48.784;9.174;2022-12-18T12:38:15;30.43;;;16.23;;
7561;SDS011;3822;48.784;9.174;2022-12-18T12:41:11;28.60;;;15.37;;
7561;SDS011;3822;48.784;9.174;2022-12-18T12:44:00;30.10;;;14.80;;
7561;SDS011;3822;48.784;9.174;2022-12-18T12:46:31;27.47;;;14.10;;
7561;SDS011;3822;48.784;9.174;2022-12-18T12:49:03;28.30;;;15.77;;
7561;SDS011;3822;48.784;9.174;2022-12-18T12:51:41;29.20;;;14.00;;
7561;SDS011;3822;48.784;9.174;2022-12-18T12:54:19;31.93;;;13.80;;
7561;SDS011;3822;48.784;9.174;2022-12-18T12:59:37;34.30;;;15.90;;
7561;SDS011;3822;48.784;9.174;2022-12-18T13:08:51;33.50;;;17.00;;
7561;SDS011;3822;48.784;9.174;2022-12-18T13:11:35;35.10;;;16.07;;
7561;SDS011;3822;48.784;9.174;2022-12-18T13:14:32;29.83;;;15.97;;
7561;SDS011;3822;48.784;9.174;2022-12-18T13:22:36;30.30;;;15.13;;
7561;SDS011;3822;48.784;9.174;2022-12-18T13:25:29;30.37;;;15.70;;
7561;SDS011;3822;48.784;9.174;2022-12-18T13:28:00;31.67;;;16.27;;
7561;SDS011;3822;48.784;9.174;2022-12-18T13:33:30;33.57;;;16.60;;
7561;SDS011;3822;48.784;9.174;2022-12-18T13:36:12;28.80;;;14.00;;
7561;SDS011;3822;48.784;9.174;2022-12-18T13:41:41;30.10;;;15.10;;
7561;SDS011;3822;48.784;9.174;2022-12-18T13:44:12;35.60;;;16.50;;
7561;SDS011;3822;48.784;9.174;2022-12-18T13:47:00;30.20;;;15.30;;
7561;SDS011;3822;48.784;9.174;2022-12-18T13:49:36;31.57;;;14.33;;
7561;SDS011;3822;48.784;9.174;2022-12-18T13:55:04;32.13;;;14.97;;
7561;SDS011;3822;48.784;9.174;2022-12-18T13:57:40;37.37;;;15.27;;
7561;SDS011;3822;48.784;9.174;2022-12-18T14:00:40;31.87;;;17.17;;
7561;SDS011;3822;48.784;9.174;2022-12-18T14:02:59;29.57;;;15.67;;
7561;SDS011;3822;48.784;9.174;2022-12-18T14:05:27;35.63;;;16.10;;
7561;SDS011;3822;48.784;9.174;2022-12-18T14:08:04;42.40;;;18.00;;
7561;SDS011;3822;48.784;9.174;2022-12-18T14:10:39;34.80;;;17.70;;
7561;SDS011;3822;48.784;9.174;2022-12-18T14:13:15;27.23;;;14.27;;
7561;SDS011;3822;48.784;9.174;2022-12-18T14:15:53;32.83;;;16.97;;
7561;SDS011;3822;48.784;9.174;2022-12-18T14:20:51;31.50;;;14.97;;
7561;SDS011;3822;48.784;9.174;2022-12-18T14:23:37;31.57;;;15.70;;
7561;SDS011;3822;48.784;9.174;2022-12-18T14:26:23;34.77;;;17.17;;
7561;SDS011;3822;48.784;9.174;2022-12-18T14:28:55;31.40;;;15.80;;
7561;SDS011;3822;48.784;9.174;2022-12-18T14:31:24;31.60;;;16.50;;
7561;SDS011;3822;48.784;9.174;2022-12-18T14:33:53;34.03;;;17.83;;
7561;SDS011;3822;48.784;9.174;2022-12-18T14:36:21;28.20;;;15.13;;
7561;SDS011;3822;48.784;9.174;2022-12-18T14:38:51;32.70;;;16.80;;
7561;SDS011;3822;48.784;9.174;2022-12-18T14:41:23;32.83;;;16.77;;
7561;SDS011;3822;48.784;9.174;2022-12-18T14:43:52;30.23;;;16.07;;
7561;SDS011;3822;48.784;9.174;2022-12-18T14:48:59;36.17;;;17.23;;
7561;SDS011;3822;48.784;9.174;2022-12-18T14:51:32;32.70;;;15.37;;
7561;SDS011;3822;48.784;9.174;2022-12-18T14:54:00;35.97;;;15.20;;
7561;SDS011;3822;48.784;9.174;2022-12-18T14:56:35;34.27;;;16.80;;
7561;SDS011;3822;48.784;9.174;2022-12-18T14:59:15;38.07;;;17.00;;
7561;SDS011;3822;48.784;9.174;2022-12-18T15:04:39;33.77;;;15.13;;
7561;SDS011;3822;48.784;9.174;2022-12-18T15:09:43;35.93;;;17.47;;
7561;SDS011;3822;48.784;9.174;2022-12-18T15:22:39;30.37;;;14.70;;
7561;SDS011;3822;48.784;9.174;2022-12-18T15:25:01;32.93;;;16.80;;
7561;SDS011;3822;48.784;9.174;2022-12-18T15:27:55;38.63;;;18.53;;
7561;SDS011;3822;48.784;9.174;2022-12-18T15:30:22;33.23;;;16.37;;
7561;SDS011;3822;48.784;9.174;2022-12-18T15:32:51;32.17;;;16.83;;
7561;SDS011;3822;48.784;9.174;2022-12-18T15:35:22;33.17;;;15.00;;
7561;SDS011;3822;48.784;9.174;2022-12-18T15:37:51;33.23;;;17.67;;
7561;SDS011;3822;48.784;9.174;2022-12-18T15:40:18;34.63;;;16.50;;
7561;SDS011;3822;48.784;9.174;2022-12-18T15:42:51;38.27;;;18.00;;
7561;SDS011;3822;48.784;9.174;2022-12-18T15:45:38;36.17;;;17.20;;
7561;SDS011;3822;48.784;9.174;2022-12-18T15:48:23;38.33;;;16.50;;
7561;SDS011;3822;48.784;9.174;2022-12-18T15:50:50;31.93;;;16.70;;
7561;SDS011;3822;48.784;9.174;2022-12-18T15:53:21;34.80;;;17.57;;
7561;SDS011;3822;48.784;9.174;2022-12-18T15:55:47;40.93;;;21.20;;
7561;SDS011;3822;48.784;9.174;2022-12-18T15:58:32;46.57;;;17.80;;
7561;SDS011;3822;48.784;9.174;2022-12-18T16:00:59;41.63;;;21.83;;
7561;SDS011;3822;48.784;9.174;2022-12-18T16:03:26;38.97;;;18.67;;
7561;SDS011;3822;48.784;9.174;2022-12-18T16:05:53;33.40;;;17.07;;
7561;SDS011;3822;48.784;9.174;2022-12-18T16:08:19;46.50;;;19.03;;
7561;SDS011;3822;48.784;9.174;2022-12-18T16:10:46;39.90;;;17.23;;
7561;SDS011;3822;48.784;9.174;2022-12-18T16:13:14;35.93;;;16.50;;
7561;SDS011;3822;48.784;9.174;2022-12-18T16:15:44;35.77;;;17.67;;
7561;SDS011;3822;48.784;9.174;2022-12-18T16:18:14;32.60;;;16.73;;
7561;SDS011;3822;48.784;9.174;2022-12-18T16:20:41;50.27;;;21.43;;
7561;SDS011;3822;48.784;9.174;2022-12-18T16:28:40;40.87;;;19.20;;
7561;SDS011;3822;48.784;9.174;2022-12-18T16:31:06;34.97;;;16.70;;
7561;SDS011;3822;48.784;9.174;2022-12-18T16:33:33;36.90;;;16.90;;
7561;SDS011;3822;48.784;9.174;2022-12-18T16:36:01;45.20;;;18.60;;
7561;SDS011;3822;48.784;9.174;2022-12-18T16:38:28;36.77;;;19.43;;
7561;SDS011;3822;48.784;9.174;2022-12-18T16:40:55;32.13;;;16.07;;
7561;SDS011;3822;48.784;9.174;2022-12-18T16:43:40;36.80;;;16.30;;
7561;SDS011;3822;48.784;9.174;2022-12-18T16:46:06;34.93;;;16.40;;
7561;SDS011;3822;48.784;9.174;2022-12-18T16:48:32;36.47;;;17.97;;
7561;SDS011;3822;48.784;9.174;2022-12-18T16:51:03;37.17;;;17.10;;
7561;SDS011;3822;48.784;9.174;2022-12-18T16:53:31;37.27;;;18.00;;
7561;SDS011;3822;48.784;9.174;2022-12-18T16:55:58;35.37;;;18.20;;
7561;SDS011;3822;48.784;9.174;2022-12-18T16:58:25;32.97;;;15.20;;
7561;SDS011;3822;48.784;9.174;2022-12-18T17:00:51;38.43;;;18.53;;
7561;SDS011;3822;48.784;9.174;2022-12-18T17:03:18;33.63;;;16.87;;
7561;SDS011;3822;48.784;9.174;2022-12-18T17:05:44;31.53;;;15.17;;
7561;SDS011;3822;48.784;9.174;2022-12-18T17:08:11;33.17;;;16.57;;
7561;SDS011;3822;48.784;9.174;2022-12-18T17:10:37;31.63;;;17.37;;
7561;SDS011;3822;48.784;9.174;2022-12-18T17:13:04;34.10;;;17.13;;
7561;SDS011;3822;48.784;9.174;2022-12-18T17:15:33;37.50;;;16.70;;
7561;SDS011;3822;48.784;9.174;2022-12-18T17:18:01;37.47;;;17.57;;
7561;SDS011;3822;48.784;9.174;2022-12-18T17:20:31;32.93;;;17.40;;
7561;SDS011;3822;48.784;9.174;2022-12-18T17:22:57;36.07;;;17.07;;
7561;SDS011;3822;48.784;9.174;2022-12-18T17:25:24;41.10;;;18.47;;
7561;SDS011;3822;48.784;9.174;2022-12-18T17:27:50;33.20;;;17.80;;
7561;SDS011;3822;48.784;9.174;2022-12-18T17:30:17;41.37;;;19.47;;
7561;SDS011;3822;48.784;9.174;2022-12-18T17:32:44;43.23;;;19.60;;
7561;SDS011;3822;48.784;9.174;2022-12-18T17:35:10;38.50;;;18.57;;
7561;SDS011;3822;48.784;9.174;2022-12-18T17:37:36;37.70;;;19.17;;
7561;SDS011;3822;48.784;9.174;2022-12-18T17:40:03;36.27;;;18.53;;